»·PEaware :: UAL736 KSAN-KSFO

UAL736 :: KSAN-KSFO

FLIGHT INFORMATION

Flight Status: Arrived
Operator:
United Airlines
More flights by this operator :: More flights under this callsign
Pilot: Chuck O. (4337)
Aircraft: AIRBUS A320
(A320)
More flights by this aircraft type
Origin: KSAN San Diego Intl-Lindbergh
United States
Destination: KSFO San Francisco Intl
United States
More flights between these airports :: More routes between these airports
Route: PADRZ1 IKAYE RIZIN SPLNT STOKD SERFR SERFR2
File this flight plan on PilotEdge
Remarks: SEL / CHAR
Altitude:
(Current/Filed)
360ft
Speed:
(Current/Filed)
452kts
Departed: 22-Nov-17 11:55 AM
Arrived: 22-Nov-17 01:05 PM
Distance/Time
Traveled:
388nm/1:10
Distance/Time
To Go:
Arrived

Flight Plot

Page will automatically refresh every two minutes.

Flight plan parsing failed; only flown route is shown


Map Options




Map Legend


Flown Route
Filed Route
Departure Airport
Arrival Airport
Navaid (VOR, NDB)
Fix

Horizontal Profiles

Position Reports

Time Latitude Longitude Heading Altitude Ground
Speed
22-Nov-17 11:36 32.734839 -117.203984 195 29ft 0kts
22-Nov-17 11:37 32.734839 -117.203984 195 29ft 0kts
22-Nov-17 11:38 32.734839 -117.203984 195 29ft 0kts
22-Nov-17 11:39 32.734839 -117.203984 195 29ft 0kts
22-Nov-17 11:40 32.734839 -117.203984 195 29ft 0kts
22-Nov-17 11:42 32.734839 -117.203984 195 29ft 0kts
22-Nov-17 11:43 32.734839 -117.203984 195 29ft 0kts
22-Nov-17 11:44 32.734839 -117.203984 195 29ft 0kts
22-Nov-17 11:45 32.734839 -117.203984 195 29ft 0kts
22-Nov-17 11:46 32.734839 -117.203984 195 29ft 0kts
22-Nov-17 11:47 32.734839 -117.203984 195 29ft 0kts
22-Nov-17 11:48 32.734839 -117.203984 195 29ft 0kts
22-Nov-17 11:49 32.735360 -117.203830 190 29ft 2kts
22-Nov-17 11:50 32.735930 -117.203893 105 29ft 2kts
22-Nov-17 11:51 32.735967 -117.204055 105 29ft 0kts
22-Nov-17 11:52 32.735966 -117.204054 105 29ft 0kts
22-Nov-17 11:53 32.735966 -117.204053 105 29ft 0kts
22-Nov-17 11:54 32.735966 -117.204052 105 29ft 0kts
22-Nov-17 11:55 32.735966 -117.204051 105 29ft 0kts
22-Nov-17 11:56 32.735966 -117.204050 105 29ft 0kts
22-Nov-17 11:57 32.735965 -117.204050 105 29ft 0kts
22-Nov-17 11:58 32.735965 -117.204049 105 29ft 0kts
22-Nov-17 11:59 32.735375 -117.201608 108 29ft 30kts
22-Nov-17 12:00 32.731881 -117.186729 105 29ft 51kts
22-Nov-17 12:01 32.729567 -117.177072 71 29ft 0kts
22-Nov-17 12:02 32.729567 -117.177071 71 29ft 0kts
22-Nov-17 12:03 32.729567 -117.177070 71 29ft 0kts
22-Nov-17 12:04 32.730480 -117.176894 284 29ft 10kts
22-Nov-17 12:05 32.733772 -117.190081 285 30ft 152kts
22-Nov-17 12:06 32.758830 -117.246586 307 2641ft 212kts
22-Nov-17 12:07 32.796444 -117.313237 306 4542ft 270kts
22-Nov-17 12:08 32.843660 -117.386507 309 7377ft 286kts
22-Nov-17 12:09 32.892599 -117.462556 308 9991ft 298kts
22-Nov-17 12:10 32.946911 -117.547096 307 11365ft 348kts
22-Nov-17 12:11 33.006999 -117.640833 306 13449ft 363kts
22-Nov-17 12:12 33.070938 -117.736978 316 15567ft 373kts
22-Nov-17 12:13 33.151376 -117.818300 318 17530ft 383kts
22-Nov-17 12:14 33.231417 -117.911617 309 19425ft 391kts
22-Nov-17 12:15 33.304408 -118.010449 309 21124ft 401kts
22-Nov-17 12:16 33.379255 -118.111287 308 22669ft 410kts
22-Nov-17 12:17 33.455010 -118.213678 308 23164ft 412kts
22-Nov-17 12:18 33.531320 -118.317184 307 24344ft 418kts
22-Nov-17 12:19 33.596913 -118.406455 307 25466ft 424kts
22-Nov-17 12:20 33.675786 -118.513870 307 26750ft 431kts
22-Nov-17 12:21 33.750000 -118.615440 306 27888ft 438kts
22-Nov-17 12:22 33.824356 -118.717359 306 28967ft 444kts
22-Nov-17 12:23 33.904746 -118.827941 306 30042ft 450kts
22-Nov-17 12:24 33.983934 -118.937174 305 31160ft 452kts
22-Nov-17 12:25 34.058023 -119.039650 305 32360ft 448kts
22-Nov-17 12:26 34.123141 -119.130051 305 33251ft 448kts
22-Nov-17 12:27 34.204517 -119.243253 305 34334ft 445kts
22-Nov-17 12:28 34.285486 -119.356356 305 35260ft 445kts
22-Nov-17 12:29 34.366385 -119.469595 305 36102ft 444kts
22-Nov-17 12:30 34.440755 -119.569411 309 36141ft 447kts
22-Nov-17 12:31 34.528685 -119.676744 308 36130ft 447kts
22-Nov-17 12:32 34.610766 -119.778317 309 36127ft 446kts
22-Nov-17 12:33 34.694373 -119.881703 309 36125ft 446kts
22-Nov-17 12:34 34.781150 -119.989438 309 36115ft 446kts
22-Nov-17 12:35 34.848775 -120.073664 309 36095ft 448kts
22-Nov-17 12:36 34.936023 -120.182596 309 36141ft 448kts
22-Nov-17 12:37 35.011776 -120.277444 309 36172ft 448kts
22-Nov-17 12:38 35.095753 -120.381833 311 36172ft 449kts
22-Nov-17 12:39 35.186615 -120.483359 312 36144ft 449kts
22-Nov-17 12:40 35.278215 -120.586441 312 36125ft 448kts
22-Nov-17 12:41 35.360951 -120.679568 312 36081ft 448kts
22-Nov-17 12:42 35.437522 -120.766113 312 36100ft 448kts
22-Nov-17 12:43 35.540945 -120.871937 318 36159ft 452kts
22-Nov-17 12:44 35.641796 -120.964926 317 36204ft 452kts
22-Nov-17 12:45 35.725355 -121.042905 318 36226ft 453kts
22-Nov-17 12:46 35.842532 -121.152372 317 36170ft 453kts
22-Nov-17 12:47 35.944127 -121.247793 317 33041ft 469kts
22-Nov-17 12:48 36.028555 -121.327029 316 31009ft 447kts
22-Nov-17 12:49 36.126730 -121.410568 321 28794ft 437kts
22-Nov-17 12:50 36.228162 -121.489113 320 26607ft 423kts
22-Nov-17 12:51 36.326431 -121.566180 320 24402ft 414kts
22-Nov-17 12:52 36.422136 -121.641422 320 22326ft 402kts
22-Nov-17 12:53 36.515505 -121.714907 321 20273ft 390kts
22-Nov-17 12:54 36.605728 -121.786301 321 18193ft 381kts
22-Nov-17 12:55 36.694266 -121.856590 322 16177ft 373kts
22-Nov-17 12:56 36.787855 -121.908636 344 14374ft 373kts
22-Nov-17 12:57 36.887995 -121.934678 343 12698ft 363kts
22-Nov-17 12:58 36.981475 -121.964093 338 11612ft 318kts
22-Nov-17 12:59 37.062362 -121.996201 339 9912ft 300kts
22-Nov-17 13:00 37.139439 -122.026232 339 8462ft 294kts
22-Nov-17 13:01 37.216590 -122.056457 340 7332ft 280kts
22-Nov-17 13:02 37.288686 -122.084907 339 6024ft 267kts
22-Nov-17 13:03 37.359518 -122.112963 341 5778ft 264kts
22-Nov-17 13:04 37.427768 -122.139887 341 4699ft 253kts
22-Nov-17 13:05 37.494660 -122.162934 349 3582ft 243kts
22-Nov-17 13:06 37.545053 -122.199133 296 2959ft 189kts
22-Nov-17 13:07 37.567407 -122.252794 297 1953ft 151kts
22-Nov-17 13:08 37.586057 -122.297200 296 1141ft 143kts
22-Nov-17 13:09 37.604826 -122.341892 299 367ft 141kts
22-Nov-17 13:10 37.618414 -122.374213 295 27ft 24kts
22-Nov-17 13:11 37.618977 -122.377675 267 27ft 7kts
22-Nov-17 13:12 37.618967 -122.377947 267 27ft 0kts
22-Nov-17 13:13 37.618967 -122.377949 267 27ft 0kts
22-Nov-17 13:14 37.619113 -122.379236 296 27ft 10kts
22-Nov-17 13:15 37.620568 -122.383584 250 27ft 0kts
22-Nov-17 13:16 37.619091 -122.382508 230 27ft 8kts
22-Nov-17 13:17 37.619197 -122.383541 290 27ft 0kts
22-Nov-17 13:18 37.619197 -122.383541 290 27ft 0kts
22-Nov-17 13:19 37.619197 -122.383541 290 27ft 0kts
22-Nov-17 13:20 37.619197 -122.383541 290 27ft 0kts
22-Nov-17 13:21 37.619197 -122.383541 290 27ft 0kts
22-Nov-17 13:22 37.619197 -122.383541 290 27ft 0kts

Navigation Log

Ident Type
Flight plan parsing failed, navigation log unavailable